Vivien A — TCYC4 — position and weather

sailwx.info

Track history (hours):
 
Tides and Currents Weather Stations Pressure Air Temp Water Temp Dewpoint Dewpoint Depression Visibility Wind Speed Wind Dir Waves Ship Positions

Vivien A

Last reported at 2015-Jul-11 16:29 UTC. Time now 2015-Sep-05 03:43 UTC.
Position N 24°06' W 017°16'.
Warning: this ship's position is 55 days out of date.

Length 210 m; draft 11.2 m.

Type: Ship (hazmat cat A). MMSI: 271040635.

Date/timePositionNaut miles runAvg speedWind from/ knotsBaromVisibWave heightAir tempDewpointWater temp
2015-Jul-11 16:29N 24°06' W 017°16'19419.1
2015-Jul-11 06:20N 26°36' W 015°00'2219.2
2015-Jul-11 05:11N 26°54' W 014°45'1319.6
2015-Jul-11 04:33N 27°04' W 014°36'1919.3
2015-Jul-11 03:33N 27°18' W 014°23'1919.5
2015-Jul-11 02:34N 27°33' W 014°09'2019.8
2015-Jul-11 01:34N 27°48' W 013°54'2019.5
2015-Jul-11 00:33N 28°05' W 013°43'2019.5
2015-Jul-10 23:32N 28°23' W 013°34'2219.9
2015-Jul-10 22:25N 28°43' W 013°23'1719.5
2015-Jul-10 21:34N 28°59' W 013°15'1919.1
2015-Jul-10 20:32N 29°15' W 013°03'1919.3
2015-Jul-10 19:33N 29°30' W 012°50'1919.2
2015-Jul-10 18:34N 29°46' W 012°37'1919.1
2015-Jul-10 17:33N 30°01' W 012°24'2419.5
2015-Jul-10 16:20N 30°20' W 012°07'2519.6
2015-Jul-10 15:03N 30°40' W 011°50'1019.8
2015-Jul-10 14:33N 30°48' W 011°43'1919.4
2015-Jul-10 13:33N 31°03' W 011°29'2518.9
2015-Jul-10 12:12N 31°24' W 011°12'1418.8
2015-Jul-10 11:29N 31°35' W 011°02'1718.8
2015-Jul-10 10:34N 31°49' W 010°50'1919.1
2015-Jul-10 09:33N 32°04' W 010°36'1918.9
2015-Jul-10 08:33N 32°17' W 010°20'2118.5
2015-Jul-10 07:26N 32°32' W 010°03'1819.0
2015-Jul-10 06:29N 32°44' W 009°47'1818.7
2015-Jul-10 05:33N 32°57' W 009°33'1918.8
2015-Jul-10 04:32N 33°10' W 009°16'1818.6
2015-Jul-10 03:33N 33°23' W 009°01'1918.8
2015-Jul-10 02:33N 33°37' W 008°46'2018.8
2015-Jul-10 01:29N 33°51' W 008°28'1818.9
2015-Jul-10 00:33N 34°03' W 008°13'1918.9
2015-Jul-09 23:33N 34°17' W 007°57'1918.9
2015-Jul-09 22:33N 34°30' W 007°41'2018.8
2015-Jul-09 21:30N 34°44' W 007°24'1819.2
2015-Jul-09 20:33N 34°57' W 007°08'1919.0
2015-Jul-09 19:33N 35°10' W 006°52'1919.1
2015-Jul-09 18:33N 35°24' W 006°36'1919.2
2015-Jul-09 17:33N 35°38' W 006°19'2019.4
2015-Jul-09 16:31N 35°51' W 006°01'25 1.0
2015-Jul-08 14:07N 35°53' W 005°30'5 7.3
2015-Jul-08 13:29N 35°58' W 005°28'  
2015-Jul-05 16:14N 36°08' W 005°24'5 7.6
2015-Jul-05 15:33N 36°04' W 005°20'12 1.6
2015-Jul-05 08:20N 36°12' W 005°09'5 7.0
2015-Jul-05 07:33N 36°08' W 005°13'1212.2
2015-Jul-05 06:33N 35°59' W 005°23'89 9.9
2015-Jul-04 21:32N 35°09' W 006°54'1010.1
2015-Jul-04 20:33N 35°02' W 007°03'42 9.9
2015-Jul-04 16:22N 34°32' W 007°38'810.3
2015-Jul-04 15:33N 34°26' W 007°45'1010.4
2015-Jul-04 14:33N 34°19' W 007°54'4210.5
2015-Jul-04 10:31N 33°49' W 008°30'1210.4
2015-Jul-04 09:22N 33°41' W 008°40'810.2
2015-Jul-04 08:33N 33°35' W 008°48'2210.1
2015-Jul-04 06:25N 33°20' W 009°06'5110.1
2015-Jul-04 01:23N 32°44' W 009°48'8 9.6
2015-Jul-04 00:31N 32°38' W 009°56'9 9.6
2015-Jul-03 23:33N 32°31' W 010°03'22 9.5
2015-Jul-03 21:16N 32°16' W 010°21'17 9.4
2015-Jul-03 19:29N 32°04' W 010°35'9 9.4
2015-Jul-03 18:33N 31°57' W 010°42'12 9.5
2015-Jul-03 17:19N 31°48' W 010°51'8 9.9
2015-Jul-03 16:33N 31°42' W 010°56'20 9.9
2015-Jul-03 14:33N 31°26' W 011°10'10 9.6
2015-Jul-03 13:33N 31°19' W 011°16'  
Track history (hours):
 
Tides and Currents Weather Stations Pressure Air Temp Water Temp Dewpoint Dewpoint Depression Visibility Wind Speed Wind Dir Waves Ship Positions

Vivien A

Last reported at 2015-Jul-11 16:29 UTC. Time now 2015-Sep-05 03:43 UTC.
Position N 24°06' W 017°16'.
Warning: this ship's position is 55 days out of date.

Length 210 m; draft 11.2 m.

Type: Ship (hazmat cat A). MMSI: 271040635.

Date/timePositionNaut miles runAvg speedWind from/ knotsBaromVisibWave heightAir tempDewpointWater temp
2015-Jul-11 16:29N 24°06' W 017°16'19419.1
2015-Jul-11 06:20N 26°36' W 015°00'2219.2
2015-Jul-11 05:11N 26°54' W 014°45'1319.6
2015-Jul-11 04:33N 27°04' W 014°36'1919.3
2015-Jul-11 03:33N 27°18' W 014°23'1919.5
2015-Jul-11 02:34N 27°33' W 014°09'2019.8
2015-Jul-11 01:34N 27°48' W 013°54'2019.5
2015-Jul-11 00:33N 28°05' W 013°43'2019.5
2015-Jul-10 23:32N 28°23' W 013°34'2219.9
2015-Jul-10 22:25N 28°43' W 013°23'1719.5
2015-Jul-10 21:34N 28°59' W 013°15'1919.1
2015-Jul-10 20:32N 29°15' W 013°03'1919.3
2015-Jul-10 19:33N 29°30' W 012°50'1919.2
2015-Jul-10 18:34N 29°46' W 012°37'1919.1
2015-Jul-10 17:33N 30°01' W 012°24'2419.5
2015-Jul-10 16:20N 30°20' W 012°07'2519.6
2015-Jul-10 15:03N 30°40' W 011°50'1019.8
2015-Jul-10 14:33N 30°48' W 011°43'1919.4
2015-Jul-10 13:33N 31°03' W 011°29'2518.9
2015-Jul-10 12:12N 31°24' W 011°12'1418.8
2015-Jul-10 11:29N 31°35' W 011°02'1718.8
2015-Jul-10 10:34N 31°49' W 010°50'1919.1
2015-Jul-10 09:33N 32°04' W 010°36'1918.9
2015-Jul-10 08:33N 32°17' W 010°20'2118.5
2015-Jul-10 07:26N 32°32' W 010°03'1819.0
2015-Jul-10 06:29N 32°44' W 009°47'1818.7
2015-Jul-10 05:33N 32°57' W 009°33'1918.8
2015-Jul-10 04:32N 33°10' W 009°16'1818.6
2015-Jul-10 03:33N 33°23' W 009°01'1918.8
2015-Jul-10 02:33N 33°37' W 008°46'2018.8
2015-Jul-10 01:29N 33°51' W 008°28'1818.9
2015-Jul-10 00:33N 34°03' W 008°13'1918.9
2015-Jul-09 23:33N 34°17' W 007°57'1918.9
2015-Jul-09 22:33N 34°30' W 007°41'2018.8
2015-Jul-09 21:30N 34°44' W 007°24'1819.2
2015-Jul-09 20:33N 34°57' W 007°08'1919.0
2015-Jul-09 19:33N 35°10' W 006°52'1919.1
2015-Jul-09 18:33N 35°24' W 006°36'1919.2
2015-Jul-09 17:33N 35°38' W 006°19'2019.4
2015-Jul-09 16:31N 35°51' W 006°01'25 1.0
2015-Jul-08 14:07N 35°53' W 005°30'5 7.3
2015-Jul-08 13:29N 35°58' W 005°28'  
2015-Jul-05 16:14N 36°08' W 005°24'5 7.6
2015-Jul-05 15:33N 36°04' W 005°20'12 1.6
2015-Jul-05 08:20N 36°12' W 005°09'5 7.0
2015-Jul-05 07:33N 36°08' W 005°13'1212.2
2015-Jul-05 06:33N 35°59' W 005°23'89 9.9
2015-Jul-04 21:32N 35°09' W 006°54'1010.1
2015-Jul-04 20:33N 35°02' W 007°03'42 9.9
2015-Jul-04 16:22N 34°32' W 007°38'810.3
2015-Jul-04 15:33N 34°26' W 007°45'1010.4
2015-Jul-04 14:33N 34°19' W 007°54'4210.5
2015-Jul-04 10:31N 33°49' W 008°30'1210.4
2015-Jul-04 09:22N 33°41' W 008°40'810.2
2015-Jul-04 08:33N 33°35' W 008°48'2210.1
2015-Jul-04 06:25N 33°20' W 009°06'5110.1
2015-Jul-04 01:23N 32°44' W 009°48'8 9.6
2015-Jul-04 00:31N 32°38' W 009°56'9 9.6
2015-Jul-03 23:33N 32°31' W 010°03'22 9.5
2015-Jul-03 21:16N 32°16' W 010°21'17 9.4
2015-Jul-03 19:29N 32°04' W 010°35'9 9.4
2015-Jul-03 18:33N 31°57' W 010°42'12 9.5
2015-Jul-03 17:19N 31°48' W 010°51'8 9.9
2015-Jul-03 16:33N 31°42' W 010°56'20 9.9
2015-Jul-03 14:33N 31°26' W 011°10'10 9.6
2015-Jul-03 13:33N 31°19' W 011°16'  

Dump ship's entire track history